sensor_id;sensor_type;location;lat;lon;timestamp;temperature;humidity
52435;DHT22;38354;52.892;6.148;2023-03-13T04:00:18;9.80;99.90
52435;DHT22;38354;52.892;6.148;2023-03-13T04:02:46;9.90;99.90
52435;DHT22;38354;52.892;6.148;2023-03-13T04:05:12;9.90;99.90
52435;DHT22;38354;52.892;6.148;2023-03-13T04:07:38;9.90;99.90
52435;DHT22;38354;52.892;6.148;2023-03-13T04:10:04;10.00;99.90
52435;DHT22;38354;52.892;6.148;2023-03-13T04:12:32;10.00;99.90
52435;DHT22;38354;52.892;6.148;2023-03-13T04:14:57;10.10;99.90
52435;DHT22;38354;52.892;6.148;2023-03-13T04:17:23;10.10;99.90
52435;DHT22;38354;52.892;6.148;2023-03-13T04:19:48;10.10;99.90
52435;DHT22;38354;52.892;6.148;2023-03-13T04:22:14;10.20;99.90
52435;DHT22;38354;52.892;6.148;2023-03-13T04:24:40;10.20;99.90
52435;DHT22;38354;52.892;6.148;2023-03-13T04:27:05;10.20;99.90
52435;DHT22;38354;52.892;6.148;2023-03-13T04:29:34;10.30;99.90
52435;DHT22;38354;52.892;6.148;2023-03-13T04:32:00;10.30;99.90
52435;DHT22;38354;52.892;6.148;2023-03-13T04:34:26;10.40;99.90
52435;DHT22;38354;52.892;6.148;2023-03-13T04:36:52;10.40;99.90
52435;DHT22;38354;52.892;6.148;2023-03-13T04:39:17;10.40;99.90
52435;DHT22;38354;52.892;6.148;2023-03-13T04:41:43;10.50;99.90
52435;DHT22;38354;52.892;6.148;2023-03-13T04:44:08;10.50;99.90
52435;DHT22;38354;52.892;6.148;2023-03-13T04:46:35;10.60;99.90
52435;DHT22;38354;52.892;6.148;2023-03-13T04:49:00;10.60;99.90
52435;DHT22;38354;52.892;6.148;2023-03-13T04:51:26;10.70;99.90
52435;DHT22;38354;52.892;6.148;2023-03-13T04:53:52;10.80;99.90
52435;DHT22;38354;52.892;6.148;2023-03-13T04:56:25;10.80;99.90
52435;DHT22;38354;52.892;6.148;2023-03-13T04:58:51;10.90;99.90
52435;DHT22;38354;52.892;6.148;2023-03-13T05:01:17;10.90;99.90
52435;DHT22;38354;52.892;6.148;2023-03-13T05:03:43;10.90;99.90
52435;DHT22;38354;52.892;6.148;2023-03-13T05:06:09;11.00;99.90
52435;DHT22;38354;52.892;6.148;2023-03-13T05:08:34;11.00;99.90
52435;DHT22;38354;52.892;6.148;2023-03-13T05:11:03;11.10;99.90
52435;DHT22;38354;52.892;6.148;2023-03-13T05:13:29;11.10;99.90
52435;DHT22;38354;52.892;6.148;2023-03-13T05:15:55;11.10;99.90
52435;DHT22;38354;52.892;6.148;2023-03-13T05:18:20;11.20;99.90
52435;DHT22;38354;52.892;6.148;2023-03-13T05:20:46;11.20;99.90
52435;DHT22;38354;52.892;6.148;2023-03-13T05:23:11;11.20;99.90
52435;DHT22;38354;52.892;6.148;2023-03-13T05:25:37;11.30;99.90
52435;DHT22;38354;52.892;6.148;2023-03-13T05:28:03;11.20;99.90
52435;DHT22;38354;52.892;6.148;2023-03-13T05:30:29;11.30;99.90
52435;DHT22;38354;52.892;6.148;2023-03-13T05:33:04;11.30;99.90
52435;DHT22;38354;52.892;6.148;2023-03-13T05:35:30;11.30;99.90
52435;DHT22;38354;52.892;6.148;2023-03-13T05:37:56;11.30;99.90
52435;DHT22;38354;52.892;6.148;2023-03-13T05:40:21;11.30;99.90
52435;DHT22;38354;52.892;6.148;2023-03-13T05:42:47;11.30;99.90
52435;DHT22;38354;52.892;6.148;2023-03-13T05:45:13;11.30;99.90
52435;DHT22;38354;52.892;6.148;2023-03-13T05:47:39;11.30;99.90
52435;DHT22;38354;52.892;6.148;2023-03-13T05:50:05;11.30;99.90
52435;DHT22;38354;52.892;6.148;2023-03-13T05:52:32;11.30;99.90
52435;DHT22;38354;52.892;6.148;2023-03-13T05:54:58;11.30;99.90
52435;DHT22;38354;52.892;6.148;2023-03-13T05:57:24;11.40;99.90
52435;DHT22;38354;52.892;6.148;2023-03-13T05:59:50;11.40;99.90
52435;DHT22;38354;52.892;6.148;2023-03-13T06:02:16;11.40;99.90
52435;DHT22;38354;52.892;6.148;2023-03-13T06:04:42;11.50;99.90
52435;DHT22;38354;52.892;6.148;2023-03-13T06:07:08;11.50;99.90
52435;DHT22;38354;52.892;6.148;2023-03-13T06:09:33;11.50;99.90
52435;DHT22;38354;52.892;6.148;2023-03-13T06:11:59;11.50;99.90
52435;DHT22;38354;52.892;6.148;2023-03-13T06:14:25;11.50;99.90
52435;DHT22;38354;52.892;6.148;2023-03-13T06:16:53;11.50;99.90
52435;DHT22;38354;52.892;6.148;2023-03-13T06:19:20;11.50;99.90
52435;DHT22;38354;52.892;6.148;2023-03-13T06:21:47;11.50;99.90
52435;DHT22;38354;52.892;6.148;2023-03-13T06:24:12;11.50;99.90
52435;DHT22;38354;52.892;6.148;2023-03-13T06:26:38;11.50;99.90
52435;DHT22;38354;52.892;6.148;2023-03-13T06:29:04;11.40;99.90
52435;DHT22;38354;52.892;6.148;2023-03-13T06:31:29;11.50;99.90
52435;DHT22;38354;52.892;6.148;2023-03-13T06:33:55;11.50;99.90
52435;DHT22;38354;52.892;6.148;2023-03-13T06:36:22;11.50;99.90
52435;DHT22;38354;52.892;6.148;2023-03-13T06:38:48;11.50;99.90
52435;DHT22;38354;52.892;6.148;2023-03-13T06:41:14;11.60;99.90
52435;DHT22;38354;52.892;6.148;2023-03-13T06:43:40;11.70;99.90
52435;DHT22;38354;52.892;6.148;2023-03-13T06:46:07;11.70;99.90
52435;DHT22;38354;52.892;6.148;2023-03-13T06:48:33;11.70;99.90
52435;DHT22;38354;52.892;6.148;2023-03-13T06:50:59;11.80;99.90
52435;DHT22;38354;52.892;6.148;2023-03-13T06:53:25;11.70;99.90
52435;DHT22;38354;52.892;6.148;2023-03-13T06:55:50;11.80;99.90
52435;DHT22;38354;52.892;6.148;2023-03-13T06:58:17;11.80;99.90
52435;DHT22;38354;52.892;6.148;2023-03-13T07:00:43;11.80;99.90
52435;DHT22;38354;52.892;6.148;2023-03-13T07:03:09;11.70;99.90
52435;DHT22;38354;52.892;6.148;2023-03-13T07:05:36;11.70;99.90
52435;DHT22;38354;52.892;6.148;2023-03-13T07:08:02;11.70;99.90
52435;DHT22;38354;52.892;6.148;2023-03-13T07:10:29;11.70;99.90
52435;DHT22;38354;52.892;6.148;2023-03-13T07:12:55;11.70;99.90
52435;DHT22;38354;52.892;6.148;2023-03-13T07:15:22;11.80;99.90
52435;DHT22;38354;52.892;6.148;2023-03-13T07:17:48;11.80;99.90
52435;DHT22;38354;52.892;6.148;2023-03-13T07:20:14;11.90;99.90
52435;DHT22;38354;52.892;6.148;2023-03-13T07:22:41;11.90;99.90
52435;DHT22;38354;52.892;6.148;2023-03-13T07:25:07;11.90;99.90
52435;DHT22;38354;52.892;6.148;2023-03-13T07:27:34;11.90;99.90
52435;DHT22;38354;52.892;6.148;2023-03-13T07:32:38;11.90;99.90
52435;DHT22;38354;52.892;6.148;2023-03-13T07:35:04;11.80;99.90
52435;DHT22;38354;52.892;6.148;2023-03-13T07:37:30;11.80;99.90
52435;DHT22;38354;52.892;6.148;2023-03-13T07:39:55;11.80;99.90
52435;DHT22;38354;52.892;6.148;2023-03-13T07:42:21;11.70;99.90
52435;DHT22;38354;52.892;6.148;2023-03-13T07:44:47;11.60;99.90
52435;DHT22;38354;52.892;6.148;2023-03-13T07:47:12;11.50;99.90
52435;DHT22;38354;52.892;6.148;2023-03-13T07:49:38;11.60;99.90
52435;DHT22;38354;52.892;6.148;2023-03-13T07:52:07;11.60;99.90
52435;DHT22;38354;52.892;6.148;2023-03-13T07:54:33;11.60;99.90
52435;DHT22;38354;52.892;6.148;2023-03-13T07:57:00;11.60;99.90
52435;DHT22;38354;52.892;6.148;2023-03-13T07:59:26;11.70;99.90
52435;DHT22;38354;52.892;6.148;2023-03-13T08:01:52;11.70;99.90
52435;DHT22;38354;52.892;6.148;2023-03-13T08:04:18;11.60;99.90
52435;DHT22;38354;52.892;6.148;2023-03-13T08:06:44;11.60;99.90
52435;DHT22;38354;52.892;6.148;2023-03-13T08:09:09;11.70;99.90
52435;DHT22;38354;52.892;6.148;2023-03-13T08:11:37;11.70;99.90
52435;DHT22;38354;52.892;6.148;2023-03-13T08:14:05;11.70;99.90
52435;DHT22;38354;52.892;6.148;2023-03-13T08:16:32;11.70;99.90
52435;DHT22;38354;52.892;6.148;2023-03-13T08:18:59;11.80;99.90
52435;DHT22;38354;52.892;6.148;2023-03-13T08:21:27;11.90;99.90
52435;DHT22;38354;52.892;6.148;2023-03-13T08:23:54;12.00;99.90
52435;DHT22;38354;52.892;6.148;2023-03-13T08:26:22;12.00;99.90
52435;DHT22;38354;52.892;6.148;2023-03-13T08:28:52;12.00;99.90
52435;DHT22;38354;52.892;6.148;2023-03-13T08:31:26;12.10;99.90
52435;DHT22;38354;52.892;6.148;2023-03-13T08:33:52;12.10;99.90
52435;DHT22;38354;52.892;6.148;2023-03-13T08:36:21;12.20;99.90
52435;DHT22;38354;52.892;6.148;2023-03-13T08:38:49;12.10;99.90
52435;DHT22;38354;52.892;6.148;2023-03-13T08:41:20;12.20;99.90
52435;DHT22;38354;52.892;6.148;2023-03-13T08:43:47;12.20;99.90
52435;DHT22;38354;52.892;6.148;2023-03-13T08:46:14;12.10;99.90
52435;DHT22;38354;52.892;6.148;2023-03-13T08:48:39;12.20;99.90
52435;DHT22;38354;52.892;6.148;2023-03-13T08:51:11;12.20;99.90
52435;DHT22;38354;52.892;6.148;2023-03-13T08:53:39;12.30;99.90
52435;DHT22;38354;52.892;6.148;2023-03-13T08:56:08;12.40;99.90
52435;DHT22;38354;52.892;6.148;2023-03-13T08:58:34;12.40;99.90
52435;DHT22;38354;52.892;6.148;2023-03-13T09:01:11;12.40;99.90
52435;DHT22;38354;52.892;6.148;2023-03-13T09:03:37;12.40;99.90
52435;DHT22;38354;52.892;6.148;2023-03-13T09:06:03;12.40;99.90
52435;DHT22;38354;52.892;6.148;2023-03-13T09:08:30;12.50;99.90
52435;DHT22;38354;52.892;6.148;2023-03-13T09:10:57;12.40;99.90
52435;DHT22;38354;52.892;6.148;2023-03-13T09:13:24;12.40;99.90
52435;DHT22;38354;52.892;6.148;2023-03-13T09:15:58;12.40;99.90
52435;DHT22;38354;52.892;6.148;2023-03-13T09:18:24;12.30;99.90
52435;DHT22;38354;52.892;6.148;2023-03-13T09:20:50;12.30;99.90
52435;DHT22;38354;52.892;6.148;2023-03-13T09:23:17;12.20;99.90
52435;DHT22;38354;52.892;6.148;2023-03-13T09:25:43;12.20;99.90
52435;DHT22;38354;52.892;6.148;2023-03-13T09:28:09;12.20;99.90
52435;DHT22;38354;52.892;6.148;2023-03-13T09:30:35;12.30;99.90
52435;DHT22;38354;52.892;6.148;2023-03-13T09:33:01;12.40;99.90
52435;DHT22;38354;52.892;6.148;2023-03-13T09:35:27;12.50;99.90
52435;DHT22;38354;52.892;6.148;2023-03-13T09:37:52;12.60;99.90
52435;DHT22;38354;52.892;6.148;2023-03-13T09:40:20;12.80;99.90
52435;DHT22;38354;52.892;6.148;2023-03-13T09:42:47;12.90;99.90
52435;DHT22;38354;52.892;6.148;2023-03-13T09:45:36;13.10;99.90
52435;DHT22;38354;52.892;6.148;2023-03-13T09:48:26;13.30;99.90
52435;DHT22;38354;52.892;6.148;2023-03-13T09:53:52;13.60;99.90
52435;DHT22;38354;52.892;6.148;2023-03-13T09:56:23;13.70;99.90
52435;DHT22;38354;52.892;6.148;2023-03-13T09:58:53;13.80;99.90
52435;DHT22;38354;52.892;6.148;2023-03-13T10:01:27;14.00;99.90
52435;DHT22;38354;52.892;6.148;2023-03-13T10:03:56;14.00;99.90
52435;DHT22;38354;52.892;6.148;2023-03-13T10:06:24;14.00;99.90
52435;DHT22;38354;52.892;6.148;2023-03-13T10:08:52;14.00;99.90
52435;DHT22;38354;52.892;6.148;2023-03-13T10:11:42;13.90;99.90
52435;DHT22;38354;52.892;6.148;2023-03-13T10:14:28;13.80;99.90
52435;DHT22;38354;52.892;6.148;2023-03-13T10:17:04;13.80;99.90
52435;DHT22;38354;52.892;6.148;2023-03-13T10:19:35;13.80;99.90
52435;DHT22;38354;52.892;6.148;2023-03-13T10:22:12;13.80;99.90
52435;DHT22;38354;52.892;6.148;2023-03-13T10:24:46;13.80;99.90
52435;DHT22;38354;52.892;6.148;2023-03-13T10:27:14;13.70;99.90
52435;DHT22;38354;52.892;6.148;2023-03-13T10:29:40;13.80;99.90
52435;DHT22;38354;52.892;6.148;2023-03-13T10:32:07;13.80;99.90
52435;DHT22;38354;52.892;6.148;2023-03-13T10:37:41;14.00;99.90
52435;DHT22;38354;52.892;6.148;2023-03-13T10:42:48;14.20;99.90
52435;DHT22;38354;52.892;6.148;2023-03-13T10:45:20;14.30;99.90
52435;DHT22;38354;52.892;6.148;2023-03-13T10:47:54;14.40;99.90
52435;DHT22;38354;52.892;6.148;2023-03-13T10:50:23;14.40;99.90
52435;DHT22;38354;52.892;6.148;2023-03-13T10:52:49;14.60;99.90
52435;DHT22;38354;52.892;6.148;2023-03-13T10:55:21;14.70;99.90
52435;DHT22;38354;52.892;6.148;2023-03-13T10:58:04;15.00;99.90
52435;DHT22;38354;52.892;6.148;2023-03-13T11:00:37;15.20;99.90
52435;DHT22;38354;52.892;6.148;2023-03-13T11:03:18;15.20;99.90
52435;DHT22;38354;52.892;6.148;2023-03-13T11:06:02;15.10;99.90
52435;DHT22;38354;52.892;6.148;2023-03-13T11:08:34;14.90;99.90
52435;DHT22;38354;52.892;6.148;2023-03-13T11:11:02;14.90;99.90
52435;DHT22;38354;52.892;6.148;2023-03-13T11:13:42;14.80;99.90
52435;DHT22;38354;52.892;6.148;2023-03-13T11:16:20;14.80;99.90
52435;DHT22;38354;52.892;6.148;2023-03-13T11:27:20;14.70;99.90
52435;DHT22;38354;52.892;6.148;2023-03-13T11:30:05;14.70;99.90
52435;DHT22;38354;52.892;6.148;2023-03-13T11:32:41;15.00;99.90
52435;DHT22;38354;52.892;6.148;2023-03-13T11:35:49;15.20;99.90
52435;DHT22;38354;52.892;6.148;2023-03-13T11:37:56;15.40;99.90
52435;DHT22;38354;52.892;6.148;2023-03-13T11:40:35;15.60;99.90
52435;DHT22;38354;52.892;6.148;2023-03-13T11:43:15;15.80;99.90
52435;DHT22;38354;52.892;6.148;2023-03-13T11:46:32;15.90;99.90
52435;DHT22;38354;52.892;6.148;2023-03-13T11:49:30;15.70;99.90
52435;DHT22;38354;52.892;6.148;2023-03-13T12:03:20;15.60;99.90
52435;DHT22;38354;52.892;6.148;2023-03-13T12:05:58;15.60;99.90
52435;DHT22;38354;52.892;6.148;2023-03-13T12:08:33;15.70;99.90
52435;DHT22;38354;52.892;6.148;2023-03-13T12:11:09;15.60;99.90
52435;DHT22;38354;52.892;6.148;2023-03-13T12:13:40;15.50;99.90
52435;DHT22;38354;52.892;6.148;2023-03-13T12:16:21;15.50;99.90
52435;DHT22;38354;52.892;6.148;2023-03-13T12:18:48;15.60;99.90
52435;DHT22;38354;52.892;6.148;2023-03-13T12:21:36;15.90;99.90
52435;DHT22;38354;52.892;6.148;2023-03-13T12:24:22;16.00;99.90
52435;DHT22;38354;52.892;6.148;2023-03-13T12:27:12;16.00;99.90
52435;DHT22;38354;52.892;6.148;2023-03-13T12:30:05;15.80;99.90
52435;DHT22;38354;52.892;6.148;2023-03-13T12:32:42;15.50;99.90
52435;DHT22;38354;52.892;6.148;2023-03-13T12:37:52;15.20;99.90
52435;DHT22;38354;52.892;6.148;2023-03-13T12:43:19;15.20;99.90
52435;DHT22;38354;52.892;6.148;2023-03-13T12:51:37;15.50;99.90
52435;DHT22;38354;52.892;6.148;2023-03-13T12:54:26;15.40;99.90
52435;DHT22;38354;52.892;6.148;2023-03-13T12:59:41;15.70;99.90
52435;DHT22;38354;52.892;6.148;2023-03-13T13:02:27;15.80;99.90
52435;DHT22;38354;52.892;6.148;2023-03-13T13:04:58;15.40;99.90
52435;DHT22;38354;52.892;6.148;2023-03-13T13:07:32;15.50;99.90
52435;DHT22;38354;52.892;6.148;2023-03-13T13:12:27;15.80;99.90
52435;DHT22;38354;52.892;6.148;2023-03-13T13:14:56;15.60;99.90
52435;DHT22;38354;52.892;6.148;2023-03-13T13:20:28;15.20;99.90
52435;DHT22;38354;52.892;6.148;2023-03-13T13:22:55;15.20;99.90
52435;DHT22;38354;52.892;6.148;2023-03-13T13:25:31;15.10;99.90
52435;DHT22;38354;52.892;6.148;2023-03-13T13:28:33;15.10;99.90
52435;DHT22;38354;52.892;6.148;2023-03-13T13:31:00;15.40;99.90
52435;DHT22;38354;52.892;6.148;2023-03-13T13:38:48;15.40;99.90
52435;DHT22;38354;52.892;6.148;2023-03-13T13:43:44;15.60;99.90
52435;DHT22;38354;52.892;6.148;2023-03-13T13:46:26;15.60;99.90
52435;DHT22;38354;52.892;6.148;2023-03-13T13:51:36;15.70;99.90
52435;DHT22;38354;52.892;6.148;2023-03-13T13:56:57;15.60;99.90
52435;DHT22;38354;52.892;6.148;2023-03-13T13:59:28;15.60;99.90
52435;DHT22;38354;52.892;6.148;2023-03-13T14:07:22;15.50;99.90
52435;DHT22;38354;52.892;6.148;2023-03-13T14:12:35;15.40;99.90
52435;DHT22;38354;52.892;6.148;2023-03-13T14:17:53;15.30;99.90
52435;DHT22;38354;52.892;6.148;2023-03-13T14:22:55;15.20;99.90
52435;DHT22;38354;52.892;6.148;2023-03-13T14:25:23;15.10;99.90
52435;DHT22;38354;52.892;6.148;2023-03-13T14:27:50;15.20;99.90
52435;DHT22;38354;52.892;6.148;2023-03-13T14:30:18;15.20;99.90
52435;DHT22;38354;52.892;6.148;2023-03-13T14:32:44;15.20;99.90
52435;DHT22;38354;52.892;6.148;2023-03-13T14:35:17;15.20;99.90
52435;DHT22;38354;52.892;6.148;2023-03-13T14:37:46;15.30;99.90
52435;DHT22;38354;52.892;6.148;2023-03-13T14:40:20;15.40;99.90
52435;DHT22;38354;52.892;6.148;2023-03-13T14:42:48;15.40;99.90
52435;DHT22;38354;52.892;6.148;2023-03-13T14:45:22;15.40;99.90
52435;DHT22;38354;52.892;6.148;2023-03-13T14:47:50;15.30;99.90
52435;DHT22;38354;52.892;6.148;2023-03-13T14:50:18;15.30;99.90
52435;DHT22;38354;52.892;6.148;2023-03-13T14:52:51;15.30;99.90
52435;DHT22;38354;52.892;6.148;2023-03-13T14:57:57;14.90;99.90
52435;DHT22;38354;52.892;6.148;2023-03-13T15:00:41;14.90;99.90
52435;DHT22;38354;52.892;6.148;2023-03-13T15:05:43;14.70;99.90
52435;DHT22;38354;52.892;6.148;2023-03-13T15:08:14;14.80;99.90
52435;DHT22;38354;52.892;6.148;2023-03-13T15:10:40;15.00;99.90
52435;DHT22;38354;52.892;6.148;2023-03-13T15:15:46;15.10;99.90
52435;DHT22;38354;52.892;6.148;2023-03-13T15:18:20;15.10;99.90
52435;DHT22;38354;52.892;6.148;2023-03-13T15:20:54;15.00;99.90
52435;DHT22;38354;52.892;6.148;2023-03-13T15:23:21;14.90;99.90
52435;DHT22;38354;52.892;6.148;2023-03-13T15:26:00;14.80;99.90
52435;DHT22;38354;52.892;6.148;2023-03-13T15:28:28;14.70;99.90
52435;DHT22;38354;52.892;6.148;2023-03-13T15:30:54;14.60;99.90
52435;DHT22;38354;52.892;6.148;2023-03-13T15:33:23;14.60;99.90
52435;DHT22;38354;52.892;6.148;2023-03-13T15:35:50;14.60;99.90
52435;DHT22;38354;52.892;6.148;2023-03-13T15:38:24;14.70;99.90
52435;DHT22;38354;52.892;6.148;2023-03-13T15:40:50;14.70;99.90
52435;DHT22;38354;52.892;6.148;2023-03-13T15:43:17;14.70;99.90
52435;DHT22;38354;52.892;6.148;2023-03-13T15:45:44;14.80;99.90
52435;DHT22;38354;52.892;6.148;2023-03-13T15:48:24;14.80;99.90
52435;DHT22;38354;52.892;6.148;2023-03-13T15:50:51;14.90;99.90
52435;DHT22;38354;52.892;6.148;2023-03-13T15:53:23;14.90;99.90
52435;DHT22;38354;52.892;6.148;2023-03-13T15:55:52;14.90;99.90
52435;DHT22;38354;52.892;6.148;2023-03-13T15:58:18;14.80;99.90
52435;DHT22;38354;52.892;6.148;2023-03-13T16:00:44;14.90;99.90
52435;DHT22;38354;52.892;6.148;2023-03-13T16:03:24;15.00;99.90
52435;DHT22;38354;52.892;6.148;2023-03-13T16:05:51;14.80;99.90
52435;DHT22;38354;52.892;6.148;2023-03-13T16:08:19;14.70;99.90
52435;DHT22;38354;52.892;6.148;2023-03-13T16:10:46;14.60;99.90
52435;DHT22;38354;52.892;6.148;2023-03-13T16:13:11;14.50;99.90
52435;DHT22;38354;52.892;6.148;2023-03-13T16:15:37;14.40;99.90
52435;DHT22;38354;52.892;6.148;2023-03-13T16:18:04;14.20;99.90
52435;DHT22;38354;52.892;6.148;2023-03-13T16:20:32;14.20;99.90
52435;DHT22;38354;52.892;6.148;2023-03-13T16:22:59;14.00;99.90
52435;DHT22;38354;52.892;6.148;2023-03-13T16:25:29;14.00;99.90
52435;DHT22;38354;52.892;6.148;2023-03-13T16:27:56;13.90;99.90
52435;DHT22;38354;52.892;6.148;2023-03-13T16:30:25;13.90;99.90
52435;DHT22;38354;52.892;6.148;2023-03-13T16:32:51;13.80;99.90
52435;DHT22;38354;52.892;6.148;2023-03-13T16:35:17;13.80;99.90
52435;DHT22;38354;52.892;6.148;2023-03-13T16:37:42;13.60;99.90
52435;DHT22;38354;52.892;6.148;2023-03-13T16:40:20;13.60;99.90
52435;DHT22;38354;52.892;6.148;2023-03-13T16:42:46;13.50;99.90
52435;DHT22;38354;52.892;6.148;2023-03-13T16:45:12;13.50;99.90
52435;DHT22;38354;52.892;6.148;2023-03-13T16:47:40;13.40;99.90
52435;DHT22;38354;52.892;6.148;2023-03-13T16:50:33;13.30;99.90
52435;DHT22;38354;52.892;6.148;2023-03-13T16:52:59;13.20;99.90
52435;DHT22;38354;52.892;6.148;2023-03-13T16:55:25;13.00;99.90
52435;DHT22;38354;52.892;6.148;2023-03-13T16:57:59;12.90;99.90
52435;DHT22;38354;52.892;6.148;2023-03-13T17:00:28;12.80;99.90
52435;DHT22;38354;52.892;6.148;2023-03-13T17:02:54;12.80;99.90
52435;DHT22;38354;52.892;6.148;2023-03-13T17:05:22;12.70;99.90
52435;DHT22;38354;52.892;6.148;2023-03-13T17:07:49;12.70;99.90
52435;DHT22;38354;52.892;6.148;2023-03-13T17:10:27;12.60;99.90
52435;DHT22;38354;52.892;6.148;2023-03-13T17:12:53;12.60;99.90
52435;DHT22;38354;52.892;6.148;2023-03-13T17:15:19;12.50;99.90
52435;DHT22;38354;52.892;6.148;2023-03-13T17:17:46;12.50;99.90
52435;DHT22;38354;52.892;6.148;2023-03-13T17:22:45;12.50;99.90
52435;DHT22;38354;52.892;6.148;2023-03-13T17:25:11;12.40;99.90
52435;DHT22;38354;52.892;6.148;2023-03-13T17:27:39;12.40;99.90
52435;DHT22;38354;52.892;6.148;2023-03-13T17:30:32;12.40;99.90
52435;DHT22;38354;52.892;6.148;2023-03-13T17:32:57;12.30;99.90
52435;DHT22;38354;52.892;6.148;2023-03-13T17:35:25;12.30;99.90
52435;DHT22;38354;52.892;6.148;2023-03-13T17:37:53;12.30;99.90
52435;DHT22;38354;52.892;6.148;2023-03-13T17:40:24;12.30;99.90
52435;DHT22;38354;52.892;6.148;2023-03-13T17:42:51;12.20;99.90
52435;DHT22;38354;52.892;6.148;2023-03-13T17:45:17;12.20;99.90
52435;DHT22;38354;52.892;6.148;2023-03-13T17:47:43;12.20;99.90
52435;DHT22;38354;52.892;6.148;2023-03-13T17:50:21;12.20;99.90
52435;DHT22;38354;52.892;6.148;2023-03-13T17:52:47;12.10;99.90
52435;DHT22;38354;52.892;6.148;2023-03-13T17:55:13;12.10;99.90
52435;DHT22;38354;52.892;6.148;2023-03-13T17:57:39;12.10;99.90
52435;DHT22;38354;52.892;6.148;2023-03-13T18:00:27;12.10;99.90
52435;DHT22;38354;52.892;6.148;2023-03-13T18:02:57;12.10;99.90
52435;DHT22;38354;52.892;6.148;2023-03-13T18:05:23;12.00;99.90
52435;DHT22;38354;52.892;6.148;2023-03-13T18:07:50;12.00;99.90
52435;DHT22;38354;52.892;6.148;2023-03-13T18:10:25;12.00;99.90
52435;DHT22;38354;52.892;6.148;2023-03-13T18:12:51;12.00;99.90
52435;DHT22;38354;52.892;6.148;2023-03-13T18:15:18;11.90;99.90
52435;DHT22;38354;52.892;6.148;2023-03-13T18:17:44;11.90;99.90
52435;DHT22;38354;52.892;6.148;2023-03-13T18:20:20;11.90;99.90
52435;DHT22;38354;52.892;6.148;2023-03-13T18:22:47;11.80;99.90
52435;DHT22;38354;52.892;6.148;2023-03-13T18:25:13;11.70;99.90
52435;DHT22;38354;52.892;6.148;2023-03-13T18:27:39;11.70;99.90
52435;DHT22;38354;52.892;6.148;2023-03-13T18:30:17;11.60;99.90
52435;DHT22;38354;52.892;6.148;2023-03-13T18:32:44;11.50;99.90
52435;DHT22;38354;52.892;6.148;2023-03-13T18:35:11;11.50;99.90
52435;DHT22;38354;52.892;6.148;2023-03-13T18:37:38;11.40;99.90
52435;DHT22;38354;52.892;6.148;2023-03-13T18:40:17;11.30;99.90
52435;DHT22;38354;52.892;6.148;2023-03-13T18:42:43;11.30;99.90
52435;DHT22;38354;52.892;6.148;2023-03-13T18:45:17;11.20;99.90
52435;DHT22;38354;52.892;6.148;2023-03-13T18:47:43;11.20;99.90
52435;DHT22;38354;52.892;6.148;2023-03-13T18:50:27;11.20;99.90
52435;DHT22;38354;52.892;6.148;2023-03-13T18:52:54;11.20;99.90
52435;DHT22;38354;52.892;6.148;2023-03-13T18:55:24;11.30;99.90
52435;DHT22;38354;52.892;6.148;2023-03-13T18:57:50;11.20;99.90
52435;DHT22;38354;52.892;6.148;2023-03-13T19:00:19;11.20;99.90
52435;DHT22;38354;52.892;6.148;2023-03-13T19:02:45;11.20;99.90
52435;DHT22;38354;52.892;6.148;2023-03-13T19:05:12;11.10;99.90
52435;DHT22;38354;52.892;6.148;2023-03-13T19:07:38;11.10;99.90
52435;DHT22;38354;52.892;6.148;2023-03-13T19:10:21;11.00;99.90
52435;DHT22;38354;52.892;6.148;2023-03-13T19:12:51;11.00;99.90
52435;DHT22;38354;52.892;6.148;2023-03-13T19:15:17;11.00;99.90
52435;DHT22;38354;52.892;6.148;2023-03-13T19:17:43;10.90;99.90
52435;DHT22;38354;52.892;6.148;2023-03-13T19:20:14;10.90;99.90
52435;DHT22;38354;52.892;6.148;2023-03-13T19:22:40;10.80;99.90
52435;DHT22;38354;52.892;6.148;2023-03-13T19:25:06;10.80;99.90
52435;DHT22;38354;52.892;6.148;2023-03-13T19:27:32;10.80;99.90
52435;DHT22;38354;52.892;6.148;2023-03-13T19:29:58;10.70;99.90
52435;DHT22;38354;52.892;6.148;2023-03-13T19:32:23;10.70;99.90
52435;DHT22;38354;52.892;6.148;2023-03-13T19:34:49;10.60;99.90
52435;DHT22;38354;52.892;6.148;2023-03-13T19:37:15;10.50;99.90
52435;DHT22;38354;52.892;6.148;2023-03-13T19:39:43;10.50;99.90
52435;DHT22;38354;52.892;6.148;2023-03-13T19:42:09;10.50;99.90
52435;DHT22;38354;52.892;6.148;2023-03-13T19:44:35;10.40;99.90
52435;DHT22;38354;52.892;6.148;2023-03-13T19:47:01;10.40;99.90
52435;DHT22;38354;52.892;6.148;2023-03-13T19:49:27;10.30;99.90
52435;DHT22;38354;52.892;6.148;2023-03-13T19:51:53;10.30;99.90
52435;DHT22;38354;52.892;6.148;2023-03-13T19:54:20;10.20;99.90
52435;DHT22;38354;52.892;6.148;2023-03-13T19:56:46;10.30;99.90
52435;DHT22;38354;52.892;6.148;2023-03-13T19:59:23;10.20;99.90
52435;DHT22;38354;52.892;6.148;2023-03-13T20:01:52;10.20;99.90
52435;DHT22;38354;52.892;6.148;2023-03-13T20:04:20;10.20;99.90
52435;DHT22;38354;52.892;6.148;2023-03-13T20:06:46;10.10;99.90
52435;DHT22;38354;52.892;6.148;2023-03-13T20:09:14;10.10;99.90
52435;DHT22;38354;52.892;6.148;2023-03-13T20:11:41;10.20;99.90
52435;DHT22;38354;52.892;6.148;2023-03-13T20:14:07;10.20;99.90
52435;DHT22;38354;52.892;6.148;2023-03-13T20:16:33;10.20;99.90
52435;DHT22;38354;52.892;6.148;2023-03-13T20:18:59;10.20;99.90
52435;DHT22;38354;52.892;6.148;2023-03-13T20:21:30;10.30;99.90
52435;DHT22;38354;52.892;6.148;2023-03-13T20:23:56;10.30;99.90
52435;DHT22;38354;52.892;6.148;2023-03-13T20:26:23;10.40;99.90
52435;DHT22;38354;52.892;6.148;2023-03-13T20:28:50;10.40;99.90
52435;DHT22;38354;52.892;6.148;2023-03-13T20:31:19;10.50;99.90
52435;DHT22;38354;52.892;6.148;2023-03-13T20:33:45;10.50;99.90
52435;DHT22;38354;52.892;6.148;2023-03-13T20:36:12;10.50;99.90
52435;DHT22;38354;52.892;6.148;2023-03-13T20:38:39;10.50;99.90
52435;DHT22;38354;52.892;6.148;2023-03-13T20:41:06;10.50;99.90
52435;DHT22;38354;52.892;6.148;2023-03-13T20:43:33;10.60;99.90
52435;DHT22;38354;52.892;6.148;2023-03-13T20:45:59;10.50;99.90
52435;DHT22;38354;52.892;6.148;2023-03-13T20:48:25;10.50;99.90
52435;DHT22;38354;52.892;6.148;2023-03-13T20:50:52;10.50;99.90
52435;DHT22;38354;52.892;6.148;2023-03-13T20:53:19;10.50;99.90
52435;DHT22;38354;52.892;6.148;2023-03-13T20:55:46;10.40;99.90
52435;DHT22;38354;52.892;6.148;2023-03-13T20:58:13;10.40;99.90
52435;DHT22;38354;52.892;6.148;2023-03-13T21:00:39;10.40;99.90
52435;DHT22;38354;52.892;6.148;2023-03-13T21:03:05;10.40;99.90
52435;DHT22;38354;52.892;6.148;2023-03-13T21:05:31;10.40;99.90
52435;DHT22;38354;52.892;6.148;2023-03-13T21:07:57;10.40;99.90
52435;DHT22;38354;52.892;6.148;2023-03-13T21:10:22;10.50;99.90